Time;durP1;ratioP1;P1;durP2;ratioP2;P2;SDS_P1;SDS_P2;PMS_P1;PMS_P2;Temp;Humidity;BMP_temperature;BMP_pressure;BME280_temperature;BME280_humidity;BME280_pressure;Samples;Min_cycle;Max_cycle;Signal;HPM_P1;HPM_P2
2021/12/27 00:00:38;;;;;;;17.80;9.15;;;;;;;-2.65;65.95;100149.41;5588304;31;33521;-68
2021/12/27 00:03:41;;;;;;;18.62;8.77;;;;;;;-2.69;65.90;100152.28;5588288;31;34317;-68
2021/12/27 00:06:43;;;;;;;20.10;9.35;;;;;;;-2.73;66.23;100149.03;5591015;31;33935;-68
2021/12/27 00:09:48;;;;;;;21.25;9.07;;;;;;;-2.77;65.37;100157.09;5591287;31;34443;-68
2021/12/27 00:12:51;;;;;;;23.25;10.00;;;;;;;-2.81;65.95;100150.41;5590891;31;34703;-68
2021/12/27 00:15:54;;;;;;;19.27;9.65;;;;;;;-2.83;66.31;100152.25;5590905;31;34098;-68
2021/12/27 00:18:57;;;;;;;19.80;9.60;;;;;;;-2.87;66.38;100148.16;5590849;31;33916;-68
2021/12/27 00:21:59;;;;;;;20.45;9.52;;;;;;;-2.87;68.88;100151.59;5590855;31;34529;-68
2021/12/27 00:25:05;;;;;;;19.58;9.18;;;;;;;-2.83;70.64;100147.91;5590765;31;34696;-68
2021/12/27 00:28:09;;;;;;;19.52;9.63;;;;;;;-2.89;69.12;100153.44;5589956;31;33980;-68
2021/12/27 00:31:12;;;;;;;19.25;9.52;;;;;;;-2.91;67.14;100151.84;5590635;31;34064;-69
2021/12/27 00:34:15;;;;;;;20.10;9.60;;;;;;;-2.92;67.52;100142.41;5590688;31;33925;-69
2021/12/27 00:37:18;;;;;;;20.12;9.43;;;;;;;-2.93;67.26;100145.91;5589910;31;33966;-68
2021/12/27 00:40:21;;;;;;;22.33;9.98;;;;;;;-2.96;67.55;100156.47;5589981;31;34409;-68
2021/12/27 00:43:24;;;;;;;24.40;10.48;;;;;;;-2.94;66.85;100155.44;5590637;31;34593;-68
2021/12/27 00:46:27;;;;;;;20.25;10.52;;;;;;;-2.93;66.68;100158.87;5590551;31;34692;-68
2021/12/27 00:49:29;;;;;;;19.65;10.02;;;;;;;-2.90;66.57;100154.34;5590553;31;34432;-68
2021/12/27 00:52:33;;;;;;;25.65;10.88;;;;;;;-2.86;68.61;100155.87;5590412;31;34224;-68
2021/12/27 00:55:36;;;;;;;22.05;11.00;;;;;;;-2.82;67.98;100159.13;5590497;31;34666;-68
2021/12/27 00:58:39;;;;;;;26.70;11.45;;;;;;;-2.90;66.97;100151.75;5589743;31;35210;-68
2021/12/27 01:01:42;;;;;;;22.00;11.55;;;;;;;-2.92;67.71;100158.81;5590469;31;34622;-68
2021/12/27 01:04:45;;;;;;;23.35;11.27;;;;;;;-2.95;69.93;100156.38;5590361;31;34022;-68
2021/12/27 01:07:47;;;;;;;25.50;11.77;;;;;;;-2.88;69.71;100144.72;5590418;31;34189;-68
2021/12/27 01:14:26;;;;;;;25.27;12.15;;;;;;;-2.86;70.05;100137.69;5590528;31;33925;-68
2021/12/27 01:17:29;;;;;;;25.30;11.80;;;;;;;-2.89;70.84;100137.00;5590103;31;34824;-68
2021/12/27 01:20:35;;;;;;;27.27;13.10;;;;;;;-2.95;71.38;100142.59;5590581;31;34089;-68
2021/12/27 01:23:38;;;;;;;23.20;12.13;;;;;;;-3.00;71.11;100137.62;5590163;31;34502;-68
2021/12/27 01:26:40;;;;;;;24.10;12.15;;;;;;;-3.03;71.70;100142.16;5590135;31;34562;-68
2021/12/27 01:29:43;;;;;;;27.55;12.88;;;;;;;-3.05;74.63;100141.44;5589522;31;33975;-68
2021/12/27 01:32:55;;;;;;;24.33;12.48;;;;;;;-2.88;73.88;100146.47;5590054;31;34009;-68
2021/12/27 01:35:58;;;;;;;26.33;13.40;;;;;;;-2.98;71.91;100147.94;5590036;31;33887;-68
2021/12/27 01:39:03;;;;;;;28.58;11.98;;;;;;;-3.05;72.29;100146.63;5589327;31;34583;-68
2021/12/27 01:42:06;;;;;;;24.55;12.05;;;;;;;-3.04;73.09;100141.31;5590068;31;34448;-68
2021/12/27 01:45:09;;;;;;;28.38;13.50;;;;;;;-3.08;72.53;100139.84;5590008;31;34026;-68
2021/12/27 01:48:17;;;;;;;27.48;12.30;;;;;;;-3.02;72.47;100136.91;5590279;31;33939;-69
2021/12/27 01:51:21;;;;;;;28.58;13.05;;;;;;;-2.94;72.83;100137.28;5590023;31;34577;-68
2021/12/27 01:54:24;;;;;;;25.45;12.35;;;;;;;-2.99;71.88;100130.69;5590007;31;34634;-68
2021/12/27 01:57:27;;;;;;;31.83;12.80;;;;;;;-2.82;72.79;100133.16;5590298;31;33900;-68
2021/12/27 02:00:31;;;;;;;25.55;12.23;;;;;;;-2.87;73.56;100132.59;5589932;31;33943;-68
2021/12/27 02:03:35;;;;;;;30.73;13.57;;;;;;;-2.88;74.35;100129.16;5589921;31;33916;-68
2021/12/27 02:06:40;;;;;;;27.85;12.55;;;;;;;-2.92;73.54;100127.66;5589883;31;33898;-68
2021/12/27 02:09:54;;;;;;;32.97;13.68;;;;;;;-2.92;73.08;100132.84;5589732;31;34119;-69
2021/12/27 02:12:56;;;;;;;29.37;14.02;;;;;;;-2.97;72.92;100131.44;5589870;31;33882;-68
2021/12/27 02:16:01;;;;;;;30.35;14.00;;;;;;;-2.98;73.15;100130.59;5589673;31;33986;-68
2021/12/27 02:19:04;;;;;;;29.98;14.38;;;;;;;-2.97;73.47;100134.03;5589847;31;33974;-68
2021/12/27 02:22:07;;;;;;;30.60;14.15;;;;;;;-2.84;76.08;100138.44;5590128;31;33863;-68
2021/12/27 02:25:11;;;;;;;27.83;13.02;;;;;;;-2.71;75.60;100141.97;5589589;31;34804;-68
2021/12/27 02:28:16;;;;;;;29.60;14.02;;;;;;;-2.78;75.73;100143.28;5588939;31;34592;-68
2021/12/27 02:31:18;;;;;;;31.75;13.40;;;;;;;-2.81;74.94;100137.44;5589868;31;34438;-68
2021/12/27 02:34:21;;;;;;;36.53;16.12;;;;;;;-2.80;74.49;100141.66;5589557;31;34583;-68
2021/12/27 02:37:24;;;;;;;33.28;14.90;;;;;;;-2.84;74.66;100132.41;5589542;31;34471;-68
2021/12/27 02:40:30;;;;;;;33.53;15.02;;;;;;;-2.64;74.72;100124.28;5589120;31;34008;-69
2021/12/27 02:43:33;;;;;;;36.67;16.23;;;;;;;-2.62;74.89;100138.03;5589553;31;34367;-68
2021/12/27 02:46:36;;;;;;;33.88;15.15;;;;;;;-2.65;76.15;100125.19;5589519;31;34056;-68
2021/12/27 02:49:39;;;;;;;34.92;15.43;;;;;;;-2.66;76.38;100129.56;5589653;31;34607;-68
2021/12/27 02:52:42;;;;;;;37.78;15.07;;;;;;;-2.59;76.82;100135.22;5589804;31;33876;-68
2021/12/27 02:55:47;;;;;;;34.75;15.80;;;;;;;-2.43;77.60;100135.16;5589243;31;34225;-68
2021/12/27 02:58:50;;;;;;;37.38;15.23;;;;;;;-2.57;78.03;100128.19;5589390;31;34557;-68
2021/12/27 03:01:52;;;;;;;33.10;15.43;;;;;;;-2.49;79.88;100120.78;5588538;31;33951;-68
2021/12/27 03:04:56;;;;;;;31.23;14.98;;;;;;;-2.45;81.29;100124.00;5588486;31;33921;-68
2021/12/27 03:07:59;;;;;;;35.17;15.25;;;;;;;-2.53;81.98;100114.09;5589213;31;34081;-68
2021/12/27 03:11:04;;;;;;;31.40;15.25;;;;;;;-2.42;82.91;100119.47;5588616;31;34099;-68
2021/12/27 03:14:06;;;;;;;35.65;17.37;;;;;;;-2.27;81.64;100117.69;5589189;31;34111;-68
2021/12/27 03:17:09;;;;;;;32.35;17.33;;;;;;;-2.38;81.21;100113.19;5589120;31;34411;-68
2021/12/27 03:20:14;;;;;;;36.80;18.27;;;;;;;-2.36;81.67;100118.25;5589005;31;34378;-68
2021/12/27 03:23:17;;;;;;;39.20;18.73;;;;;;;-2.31;81.01;100111.03;5588951;31;34367;-68
2021/12/27 03:26:20;;;;;;;36.22;17.55;;;;;;;-2.20;80.58;100104.25;5587926;31;34438;-68
2021/12/27 03:29:23;;;;;;;35.42;16.08;;;;;;;-2.02;78.90;100101.44;5588916;31;34359;-68
2021/12/27 03:32:26;;;;;;;37.85;17.48;;;;;;;-1.99;78.95;100090.88;5588680;31;34598;-69
2021/12/27 03:35:35;;;;;;;36.15;15.93;;;;;;;-1.96;79.19;100095.88;5588734;31;33951;-68
2021/12/27 03:38:41;;;;;;;38.08;16.98;;;;;;;-2.04;80.27;100105.94;5589023;31;34201;-68
2021/12/27 03:41:44;;;;;;;36.63;17.15;;;;;;;-2.05;81.49;100105.09;5591446;31;33966;-68
2021/12/27 03:44:47;;;;;;;36.88;18.33;;;;;;;-2.07;83.02;100104.34;5591130;31;33934;-68
2021/12/27 03:47:50;;;;;;;34.35;18.17;;;;;;;-2.05;84.51;100106.84;5591167;31;33890;-69
2021/12/27 03:50:53;;;;;;;41.60;19.30;;;;;;;-2.01;85.15;100097.94;5591330;31;34043;-68
2021/12/27 03:53:56;;;;;;;38.63;18.62;;;;;;;-1.79;84.67;100101.69;5591054;31;34291;-68
2021/12/27 03:56:58;;;;;;;39.28;19.17;;;;;;;-2.03;85.77;100111.00;5591016;31;34326;-68
2021/12/27 04:03:25;;;;;;;36.10;17.45;;;;;;;-2.02;83.99;100098.84;5590890;31;34673;-68
2021/12/27 04:06:28;;;;;;;37.42;16.98;;;;;;;-1.90;83.80;100101.53;5591204;31;34026;-68
2021/12/27 04:09:31;;;;;;;36.10;16.17;;;;;;;-2.03;84.88;100095.41;5590996;31;33980;-69
2021/12/27 04:12:34;;;;;;;37.78;18.02;;;;;;;-2.04;84.37;100093.75;5590787;31;34066;-68
2021/12/27 04:15:38;;;;;;;37.30;19.20;;;;;;;-2.25;85.83;100111.50;5591119;31;33929;-68
2021/12/27 04:18:41;;;;;;;35.63;18.27;;;;;;;-2.28;85.83;100105.66;5591157;31;33982;-68
2021/12/27 04:21:43;;;;;;;37.35;18.00;;;;;;;-2.08;84.16;100109.66;5590936;31;34605;-68
2021/12/27 04:24:46;;;;;;;35.63;18.02;;;;;;;-2.27;84.96;100107.31;5590741;31;34340;-68
2021/12/27 04:27:50;;;;;;;37.22;17.85;;;;;;;-2.11;85.23;100097.66;5590954;31;34495;-69
2021/12/27 04:30:53;;;;;;;35.45;16.02;;;;;;;-2.15;85.23;100103.16;5590528;31;34006;-69
2021/12/27 04:33:56;;;;;;;36.72;17.45;;;;;;;-2.30;85.06;100097.97;5590739;31;34038;-68
2021/12/27 04:36:59;;;;;;;34.80;16.08;;;;;;;-2.39;85.56;100097.69;5589921;31;33907;-69
2021/12/27 04:40:05;;;;;;;30.33;15.15;;;;;;;-2.44;86.09;100091.94;5589857;31;34581;-68
2021/12/27 04:43:13;;;;;;;32.33;15.52;;;;;;;-2.34;84.80;100096.47;5590251;31;33942;-68
2021/12/27 04:46:15;;;;;;;26.92;13.07;;;;;;;-2.24;84.59;100091.56;5590259;31;35190;-68
2021/12/27 04:49:18;;;;;;;25.80;13.23;;;;;;;-2.19;82.76;100094.72;5589809;31;35240;-68
2021/12/27 04:52:21;;;;;;;30.23;13.25;;;;;;;-2.29;83.03;100097.03;5590108;31;33985;-68
2021/12/27 04:55:26;;;;;;;27.87;12.18;;;;;;;-2.14;82.58;100099.62;5590462;31;33885;-68
2021/12/27 04:58:29;;;;;;;27.65;12.27;;;;;;;-2.34;82.95;100093.03;5589960;31;34129;-68
2021/12/27 05:01:31;;;;;;;26.75;11.85;;;;;;;-2.34;82.89;100093.88;5590409;31;34660;-68
2021/12/27 05:04:35;;;;;;;23.25;11.43;;;;;;;-2.42;82.96;100098.69;5590855;31;34628;-68
2021/12/27 05:07:38;;;;;;;25.55;11.55;;;;;;;-2.46;83.11;100104.16;5590393;31;34516;-68
2021/12/27 05:10:41;;;;;;;26.23;12.20;;;;;;;-2.45;82.78;100100.63;5589883;31;34463;-68
2021/12/27 05:13:43;;;;;;;23.65;11.48;;;;;;;-2.53;83.42;100102.88;5590289;31;34668;-69
2021/12/27 05:16:47;;;;;;;22.92;11.52;;;;;;;-2.47;83.54;100107.72;5590237;31;34744;-68
2021/12/27 05:19:50;;;;;;;24.23;10.70;;;;;;;-2.42;83.20;100109.06;5590627;31;34686;-69
2021/12/27 05:22:53;;;;;;;22.08;10.95;;;;;;;-2.46;83.18;100109.34;5590295;31;34014;-68
2021/12/27 05:25:57;;;;;;;23.75;11.12;;;;;;;-2.53;83.74;100100.28;5590261;31;34658;-68
2021/12/27 05:29:00;;;;;;;23.33;11.40;;;;;;;-2.49;82.79;100097.41;5590264;31;34249;-68
2021/12/27 05:32:06;;;;;;;21.65;10.45;;;;;;;-2.46;83.49;100096.38;5590088;31;34285;-69
2021/12/27 05:35:11;;;;;;;20.77;10.77;;;;;;;-2.41;83.24;100092.56;5590481;31;34332;-68
2021/12/27 05:38:14;;;;;;;21.37;10.52;;;;;;;-2.42;83.33;100103.88;5589369;31;34691;-68
2021/12/27 05:41:17;;;;;;;20.25;10.18;;;;;;;-2.40;83.78;100103.78;5590020;31;34474;-69
2021/12/27 05:44:20;;;;;;;26.15;11.55;;;;;;;-2.38;83.50;100094.16;5590402;31;34595;-68
2021/12/27 05:47:23;;;;;;;17.83;9.82;;;;;;;-2.40;83.33;100091.66;5589576;31;33946;-69
2021/12/27 05:50:25;;;;;;;24.60;11.38;;;;;;;-2.41;82.75;100096.94;5590027;31;34698;-69
2021/12/27 05:53:28;;;;;;;25.83;11.38;;;;;;;-2.29;82.65;100096.19;5589868;31;34654;-68
2021/12/27 05:56:31;;;;;;;22.58;11.02;;;;;;;-2.27;82.87;100097.75;5589924;31;33856;-69
2021/12/27 05:59:34;;;;;;;22.85;10.02;;;;;;;-2.25;82.59;100100.28;5589165;31;34174;-68
2021/12/27 06:02:37;;;;;;;26.33;11.43;;;;;;;-2.29;83.19;100094.44;5588860;31;33874;-68
2021/12/27 06:05:41;;;;;;;23.05;11.23;;;;;;;-2.31;83.62;100092.84;5589841;31;34060;-68
2021/12/27 06:08:43;;;;;;;23.62;11.52;;;;;;;-2.36;82.93;100095.72;5589697;31;34219;-69
2021/12/27 06:11:46;;;;;;;21.50;11.32;;;;;;;-2.32;83.74;100096.38;5590129;31;34402;-69
2021/12/27 06:14:49;;;;;;;23.38;12.50;;;;;;;-2.11;85.56;100086.44;5590080;31;33885;-69
2021/12/27 06:17:51;;;;;;;27.60;11.90;;;;;;;-2.28;83.63;100090.91;5589717;31;34596;-69
2021/12/27 06:20:54;;;;;;;22.33;9.90;;;;;;;-1.99;81.64;100085.69;5589769;31;34669;-69
2021/12/27 06:23:57;;;;;;;21.50;10.60;;;;;;;-2.11;82.67;100076.03;5589777;31;33925;-69
2021/12/27 06:26:59;;;;;;;22.83;11.52;;;;;;;-2.10;81.79;100080.31;5589930;31;34175;-69
2021/12/27 06:30:06;;;;;;;21.50;11.40;;;;;;;-2.12;81.72;100077.78;5589552;31;34774;-69
2021/12/27 06:33:10;;;;;;;20.23;10.60;;;;;;;-2.25;82.79;100075.13;5589820;31;34648;-68
2021/12/27 06:36:14;;;;;;;19.83;10.75;;;;;;;-2.30;82.73;100082.38;5589552;31;33942;-69
2021/12/27 06:39:17;;;;;;;23.65;11.00;;;;;;;-2.24;82.66;100082.00;5589701;31;34098;-69
2021/12/27 06:42:20;;;;;;;23.73;10.48;;;;;;;-2.18;81.80;100075.59;5588757;31;34528;-69
2021/12/27 06:45:22;;;;;;;24.75;10.13;;;;;;;-2.14;82.83;100079.66;5589531;31;34769;-69
2021/12/27 06:48:26;;;;;;;25.65;10.35;;;;;;;-2.30;83.58;100081.53;5589497;31;33934;-68
2021/12/27 06:51:30;;;;;;;26.83;10.18;;;;;;;-2.37;83.50;100068.06;5589419;31;34658;-69
2021/12/27 06:54:34;;;;;;;20.60;10.32;;;;;;;-2.22;82.96;100067.13;5589392;31;33939;-69
2021/12/27 06:57:38;;;;;;;25.60;10.00;;;;;;;-2.16;83.16;100070.28;5589658;31;34010;-69
2021/12/27 07:00:41;;;;;;;23.62;11.30;;;;;;;-2.22;84.27;100074.09;5589200;31;34223;-68
2021/12/27 07:03:44;;;;;;;22.25;11.27;;;;;;;-2.14;84.17;100071.03;5588459;31;34860;-69
2021/12/27 07:06:47;;;;;;;19.75;10.75;;;;;;;-2.15;84.57;100070.19;5588506;31;33952;-69
2021/12/27 07:09:50;;;;;;;21.17;10.43;;;;;;;-2.18;84.07;100072.16;5589494;31;35226;-69
2021/12/27 07:12:53;;;;;;;20.10;10.95;;;;;;;-2.12;84.13;100069.16;5588883;31;34033;-69
2021/12/27 07:15:55;;;;;;;20.45;11.20;;;;;;;-2.06;84.33;100072.22;5588939;31;33869;-69
2021/12/27 07:18:58;;;;;;;20.17;10.48;;;;;;;-2.11;84.76;100070.84;5588910;31;34067;-69
2021/12/27 07:22:01;;;;;;;22.55;10.60;;;;;;;-2.03;83.01;100079.00;5588841;31;34625;-69
2021/12/27 07:25:04;;;;;;;22.70;10.25;;;;;;;-2.12;83.14;100077.78;5588869;31;34757;-69
2021/12/27 07:28:07;;;;;;;22.42;11.68;;;;;;;-2.02;81.90;100071.09;5588759;31;34057;-69
2021/12/27 07:31:10;;;;;;;23.25;12.20;;;;;;;-1.93;81.06;100073.12;5588542;31;34369;-69
2021/12/27 07:34:13;;;;;;;24.80;11.25;;;;;;;-1.97;82.82;100071.66;5588898;31;34451;-69
2021/12/27 07:37:16;;;;;;;28.92;10.93;;;;;;;-1.84;82.37;100069.12;5588828;31;34087;-69
2021/12/27 07:40:19;;;;;;;23.10;11.52;;;;;;;-1.85;82.80;100081.28;5588730;31;34100;-69
2021/12/27 07:43:22;;;;;;;19.33;10.52;;;;;;;-1.95;83.03;100082.78;5588555;31;34390;-68
2021/12/27 07:46:25;;;;;;;21.12;10.60;;;;;;;-1.91;82.63;100084.25;5588896;31;33975;-69
2021/12/27 07:49:28;;;;;;;21.27;10.23;;;;;;;-1.94;81.54;100081.88;5588463;31;34023;-68
2021/12/27 07:52:30;;;;;;;20.48;10.68;;;;;;;-1.77;80.04;100079.03;5588497;31;34722;-68
2021/12/27 07:55:33;;;;;;;21.37;10.80;;;;;;;-1.78;80.58;100068.72;5588322;31;33979;-69
2021/12/27 07:58:36;;;;;;;24.45;11.85;;;;;;;-1.77;82.87;100070.38;5588358;31;34014;-68
2021/12/27 08:01:40;;;;;;;26.35;10.75;;;;;;;-1.64;79.96;100081.66;5588193;31;34620;-69
2021/12/27 08:04:44;;;;;;;21.98;11.57;;;;;;;-1.58;79.91;100075.25;5588229;31;33889;-69
2021/12/27 08:07:47;;;;;;;27.00;10.27;;;;;;;-1.45;78.86;100079.56;5574419;31;34441;-68
2021/12/27 08:10:50;;;;;;;21.77;10.02;;;;;;;-1.41;78.87;100072.41;5588114;31;34636;-69
2021/12/27 08:13:53;;;;;;;24.67;10.88;;;;;;;-1.47;79.52;100078.84;5588056;31;33858;-69
2021/12/27 08:16:56;;;;;;;24.42;11.12;;;;;;;-1.23;79.15;100071.19;5587417;31;34316;-69
2021/12/27 08:19:58;;;;;;;22.37;11.07;;;;;;;-1.06;78.30;100065.69;5588095;31;33965;-69
2021/12/27 08:23:01;;;;;;;22.30;10.57;;;;;;;-0.95;77.78;100057.19;5586954;31;34616;-69
2021/12/27 08:26:04;;;;;;;23.75;12.15;;;;;;;-1.13;77.72;100058.41;5588517;31;34366;-69
2021/12/27 08:29:10;;;;;;;26.10;12.63;;;;;;;-1.42;77.55;100055.13;5590735;31;33954;-68
2021/12/27 08:32:13;;;;;;;21.30;12.10;;;;;;;-1.61;78.78;100058.09;5590790;31;34117;-68
2021/12/27 08:35:16;;;;;;;22.70;11.45;;;;;;;-1.38;77.64;100054.81;5590588;31;34404;-69
2021/12/27 08:38:18;;;;;;;21.60;11.35;;;;;;;-1.24;77.52;100066.91;5589845;31;34008;-69
2021/12/27 08:41:27;;;;;;;21.75;11.30;;;;;;;-0.96;75.13;100058.94;5589805;31;33973;-69
2021/12/27 08:44:30;;;;;;;23.87;10.90;;;;;;;-0.99;74.47;100071.34;5590616;31;33869;-68
2021/12/27 08:47:33;;;;;;;18.85;9.95;;;;;;;-0.78;73.96;100066.47;5590830;31;34507;-68
2021/12/27 08:50:37;;;;;;;19.75;9.68;;;;;;;-0.72;72.99;100063.44;5590522;31;34339;-68
2021/12/27 08:53:40;;;;;;;21.50;10.50;;;;;;;-0.83;73.40;100073.75;5590509;31;34014;-69
2021/12/27 08:56:46;;;;;;;19.40;9.68;;;;;;;-0.49;70.39;100083.56;5590278;31;35084;-69
2021/12/27 08:59:51;;;;;;;23.38;10.40;;;;;;;-0.43;68.27;100088.34;5590292;31;33946;-69
2021/12/27 09:02:55;;;;;;;17.50;9.57;;;;;;;-0.39;69.10;100096.78;5589401;31;34110;-69
2021/12/27 09:05:58;;;;;;;23.90;10.52;;;;;;;-0.40;69.87;100090.75;5589623;31;34288;-69
2021/12/27 09:09:02;;;;;;;24.08;11.52;;;;;;;-0.63;71.52;100084.47;5590255;31;34517;-69
2021/12/27 09:12:07;;;;;;;26.92;11.05;;;;;;;-0.61;71.37;100079.19;5590353;31;34636;-69
2021/12/27 09:15:10;;;;;;;23.85;10.82;;;;;;;-0.32;71.03;100082.38;5590195;31;34733;-69
2021/12/27 09:18:13;;;;;;;25.85;12.13;;;;;;;-0.03;71.01;100082.03;5590350;31;33950;-68
2021/12/27 09:21:16;;;;;;;28.87;12.37;;;;;;;-0.03;69.29;100082.03;5590119;31;34074;-68
2021/12/27 09:24:24;;;;;;;25.27;12.63;;;;;;;0.04;68.47;100076.38;5590342;31;34676;-68
2021/12/27 09:27:27;;;;;;;25.92;12.93;;;;;;;-0.06;69.46;100064.00;5589288;31;34182;-68
2021/12/27 09:30:30;;;;;;;25.25;11.12;;;;;;;-0.14;69.45;100063.69;5590523;31;33946;-68
2021/12/27 09:33:33;;;;;;;23.12;12.40;;;;;;;0.10;67.69;100061.13;5589594;31;34419;-68
2021/12/27 09:36:36;;;;;;;26.40;11.85;;;;;;;-0.14;69.20;100060.25;5590045;31;34339;-68
2021/12/27 09:39:39;;;;;;;24.25;11.80;;;;;;;0.09;68.74;100056.88;5589380;31;33930;-68
2021/12/27 09:42:42;;;;;;;21.77;11.02;;;;;;;-0.22;68.92;100046.94;5590039;31;34629;-69
2021/12/27 09:45:45;;;;;;;21.12;9.95;;;;;;;-0.07;67.75;100049.28;5590032;31;34017;-68
2021/12/27 09:48:51;;;;;;;21.42;10.80;;;;;;;0.09;66.07;100043.00;5590007;31;33949;-68
2021/12/27 09:51:53;;;;;;;22.05;11.60;;;;;;;0.17;64.78;100045.88;5589934;31;34619;-68
2021/12/27 09:54:56;;;;;;;20.05;9.57;;;;;;;0.23;64.28;100045.44;5589302;31;33870;-68
2021/12/27 09:58:00;;;;;;;20.12;10.13;;;;;;;0.24;62.10;100042.69;5589780;31;34673;-68
2021/12/27 10:01:07;;;;;;;18.05;9.15;;;;;;;0.44;62.43;100029.03;5589566;31;34690;-68
2021/12/27 10:04:10;;;;;;;23.65;9.80;;;;;;;0.64;61.82;100030.19;5589796;31;34329;-68
2021/12/27 10:07:21;;;;;;;20.85;9.88;;;;;;;0.86;59.46;100025.06;5589814;31;34298;-69
2021/12/27 10:10:24;;;;;;;20.23;9.68;;;;;;;0.92;59.67;100028.16;5589017;31;34627;-68
2021/12/27 10:13:27;;;;;;;17.08;9.13;;;;;;;0.91;60.16;100027.31;5589787;31;34008;-68
2021/12/27 10:16:31;;;;;;;15.82;7.87;;;;;;;1.05;57.85;100014.06;5590083;31;34621;-68
2021/12/27 10:19:36;;;;;;;18.10;9.07;;;;;;;1.00;52.73;100021.41;5588975;31;34376;-69
2021/12/27 10:22:44;;;;;;;19.62;9.63;;;;;;;1.09;57.70;100023.31;5589776;31;34304;-69
2021/12/27 10:25:50;;;;;;;18.77;9.95;;;;;;;1.03;56.82;100026.38;5589440;31;34186;-68
2021/12/27 10:29:06;;;;;;;20.70;9.63;;;;;;;1.05;58.56;100014.06;5585377;31;125934;-69
2021/12/27 10:32:16;;;;;;;19.00;9.27;;;;;;;0.89;56.15;100021.38;5589174;31;33908;-69
2021/12/27 10:35:19;;;;;;;;;;;;;;;0.85;58.17;100017.34;5588944;31;34291;-69
2021/12/27 10:38:36;;;;;;;21.77;9.23;;;;;;;0.77;59.63;100019.69;5589100;31;34830;-69
2021/12/27 10:41:39;;;;;;;19.80;9.57;;;;;;;0.99;58.44;100019.72;5589074;31;34585;-69
2021/12/27 10:44:42;;;;;;;21.20;9.57;;;;;;;1.37;57.61;100011.56;5589389;31;33950;-69
2021/12/27 10:47:46;;;;;;;23.55;8.82;;;;;;;1.63;55.24;100014.78;5588557;31;34260;-69
2021/12/27 10:50:49;;;;;;;14.32;7.85;;;;;;;1.14;54.88;100015.12;5588974;31;33995;-69
2021/12/27 10:53:58;;;;;;;20.08;8.13;;;;;;;1.22;53.74;100016.19;5589163;31;33994;-69
2021/12/27 10:57:02;;;;;;;11.80;6.97;;;;;;;1.22;52.90;100012.75;5589817;31;34034;-69
2021/12/27 11:00:29;;;;;;;12.18;6.40;;;;;;;1.69;50.03;100011.72;5589347;31;33910;-69
2021/12/27 11:03:35;;;;;;;15.50;7.12;;;;;;;1.61;47.84;100014.91;5589310;31;34563;-69
2021/12/27 11:06:40;;;;;;;9.82;5.60;;;;;;;1.83;46.93;100010.63;5589050;31;34865;-69
2021/12/27 11:09:44;;;;;;;10.20;5.85;;;;;;;1.56;46.60;100003.13;5588387;31;33961;-69
2021/12/27 11:12:49;;;;;;;12.70;5.90;;;;;;;1.37;46.58;100005.53;5589276;31;34008;-69
2021/12/27 11:15:52;;;;;;;12.15;5.87;;;;;;;1.54;45.77;99994.59;5589206;31;34566;-68
2021/12/27 11:18:56;;;;;;;10.88;4.90;;;;;;;1.74;45.41;99994.69;5588295;31;34515;-69
2021/12/27 11:21:59;;;;;;;13.85;5.32;;;;;;;2.09;42.83;99999.72;5588757;31;34535;-69
2021/12/27 11:25:08;;;;;;;12.13;5.80;;;;;;;2.34;42.31;99998.56;5588836;31;35346;-68
2021/12/27 11:28:32;;;;;;;10.85;4.95;;;;;;;2.39;43.50;99985.94;5588928;31;33869;-69
2021/12/27 11:31:38;;;;;;;9.77;5.45;;;;;;;2.52;39.78;99985.75;5588729;31;34636;-69
2021/12/27 11:34:59;;;;;;;11.23;5.80;;;;;;;2.51;39.82;99984.97;5587859;31;33943;-69
2021/12/27 11:38:03;;;;;;;11.80;5.90;;;;;;;1.92;42.33;99984.56;5588979;31;34730;-69
2021/12/27 11:41:28;;;;;;;12.05;6.05;;;;;;;1.89;44.03;99982.16;5587556;31;34683;-69
2021/12/27 11:44:44;;;;;;;12.48;5.95;;;;;;;2.36;43.51;99974.91;5587692;31;34422;-69
2021/12/27 11:48:05;;;;;;;13.27;6.12;;;;;;;2.52;40.01;99980.53;5588515;31;33944;-69
2021/12/27 11:51:10;;;;;;;9.60;5.03;;;;;;;2.29;41.55;99984.19;5588255;31;34007;-69
2021/12/27 11:54:30;;;;;;;10.43;5.22;;;;;;;2.41;40.99;99978.81;5588348;31;35271;-69
2021/12/27 11:57:45;;;;;;;10.73;4.78;;;;;;;2.35;40.57;99971.44;5588259;31;33969;-69
2021/12/27 12:00:47;;;;;;;10.35;5.50;;;;;;;2.12;42.03;99964.66;5588214;31;34012;-69
2021/12/27 12:03:54;;;;;;;9.90;5.57;;;;;;;2.19;42.15;99968.41;5590942;31;34059;-69
2021/12/27 12:06:57;;;;;;;6.78;4.25;;;;;;;2.61;41.75;99962.25;5591121;31;34567;-69
2021/12/27 12:10:04;;;;;;;8.18;4.47;;;;;;;2.77;36.46;99945.28;5590765;31;34147;-68
2021/12/27 12:13:42;;;;;;;8.13;4.37;;;;;;;2.88;38.10;99946.03;5590850;31;34080;-69
2021/12/27 12:16:46;;;;;;;12.27;4.80;;;;;;;2.61;37.65;99948.37;5590038;31;33928;-69
2021/12/27 12:19:50;;;;;;;7.95;4.15;;;;;;;2.44;40.08;99951.53;5590770;31;35331;-68
2021/12/27 12:23:01;;;;;;;29.23;13.00;;;;;;;2.45;37.54;99945.34;5591166;31;35311;-69
2021/12/27 12:26:04;;;;;;;;;;;;;;;2.54;38.94;99931.50;5591253;31;34200;-69
2021/12/27 12:29:07;;;;;;;9.45;3.58;;;;;;;2.24;39.39;99934.84;5591308;31;34226;-69
2021/12/27 12:32:18;;;;;;;9.48;3.70;;;;;;;2.60;38.44;99938.84;5590833;31;34621;-69
2021/12/27 12:35:42;;;;;;;8.13;4.00;;;;;;;2.77;36.82;99927.78;5590288;31;33924;-69
2021/12/27 12:38:44;;;;;;;7.60;3.75;;;;;;;2.80;38.58;99924.91;5590502;31;34700;-69
2021/12/27 12:41:49;;;;;;;7.95;3.47;;;;;;;1.98;36.35;99920.47;5590880;31;34631;-68
2021/12/27 12:44:53;;;;;;;8.80;3.90;;;;;;;2.31;36.97;99922.94;5590598;31;34165;-69
2021/12/27 12:47:56;;;;;;;8.90;4.15;;;;;;;2.50;37.70;99917.84;5590501;31;34328;-69
2021/12/27 12:50:58;;;;;;;7.60;4.10;;;;;;;2.50;37.71;99919.63;5590598;31;34577;-68
2021/12/27 12:54:04;;;;;;;7.87;3.90;;;;;;;2.15;37.15;99915.50;5590856;31;34098;-69
2021/12/27 12:57:07;;;;;;;7.22;3.90;;;;;;;2.43;37.55;99924.53;5590474;31;34074;-69
2021/12/27 13:00:10;;;;;;;7.45;4.07;;;;;;;2.60;36.26;99923.13;5590718;31;34627;-69
2021/12/27 13:03:14;;;;;;;10.80;4.47;;;;;;;2.38;36.01;99921.44;5590389;31;33894;-69
2021/12/27 13:06:18;;;;;;;8.25;3.83;;;;;;;2.28;36.60;99927.56;5590232;31;34013;-69
2021/12/27 13:09:20;;;;;;;7.82;4.07;;;;;;;1.69;35.56;99928.03;5590316;31;34171;-69
2021/12/27 13:12:25;;;;;;;17.45;4.35;;;;;;;1.59;36.43;99929.72;5589062;31;34878;-69
2021/12/27 13:15:34;;;;;;;8.98;4.78;;;;;;;1.82;37.37;99920.03;5589931;31;34696;-69
2021/12/27 13:18:37;;;;;;;15.50;4.75;;;;;;;1.89;37.81;99916.78;5590282;31;33988;-69
2021/12/27 13:21:41;;;;;;;7.75;3.83;;;;;;;1.79;38.41;99915.06;5590300;31;33885;-68
2021/12/27 13:24:53;;;;;;;7.82;4.32;;;;;;;1.50;36.25;99920.78;5590333;31;34340;-68
2021/12/27 13:28:05;;;;;;;10.63;5.43;;;;;;;1.38;38.55;99916.56;5590218;31;34031;-68
2021/12/27 13:31:15;;;;;;;13.25;6.12;;;;;;;1.46;40.85;99916.78;5590082;31;34091;-69
2021/12/27 13:34:19;;;;;;;14.32;6.18;;;;;;;1.66;40.34;99913.41;5590201;31;34015;-69
2021/12/27 13:37:22;;;;;;;13.13;6.43;;;;;;;1.51;40.74;99912.00;5589220;31;34015;-68
2021/12/27 13:40:24;;;;;;;17.02;7.72;;;;;;;1.77;40.19;99909.09;5589858;31;33889;-69
2021/12/27 13:43:29;;;;;;;16.08;7.75;;;;;;;1.86;41.43;99913.59;5589915;31;34178;-68
2021/12/27 13:46:34;;;;;;;16.30;8.20;;;;;;;1.41;44.21;99921.53;5590385;31;33945;-68
2021/12/27 13:49:39;;;;;;;16.65;8.07;;;;;;;1.24;44.73;99909.81;5589871;31;34022;-68
2021/12/27 13:52:46;;;;;;;19.33;8.18;;;;;;;1.17;45.27;99913.00;5590010;31;34114;-68
2021/12/27 13:55:49;;;;;;;21.20;8.55;;;;;;;1.45;44.53;99912.53;5590016;31;34651;-68
2021/12/27 13:58:52;;;;;;;17.58;8.15;;;;;;;1.66;44.21;99923.03;5590361;31;34220;-69
2021/12/27 14:02:04;;;;;;;16.30;7.87;;;;;;;1.60;44.06;99919.13;5589070;31;34167;-68
2021/12/27 14:05:08;;;;;;;14.57;7.15;;;;;;;1.75;43.37;99914.44;5589322;31;34734;-68
2021/12/27 14:08:11;;;;;;;13.57;7.03;;;;;;;1.53;43.97;99910.13;5589779;31;34633;-68
2021/12/27 14:11:14;;;;;;;18.42;7.45;;;;;;;1.36;44.15;99915.00;5589692;31;34164;-69
2021/12/27 14:14:32;;;;;;;15.57;7.62;;;;;;;1.38;45.78;99918.34;5589212;31;34913;-69